Main page
METAR-TAF:

METAR-TAF

Airports :

Lloydminster Airport

Lloydminster, Alberta, Canada

latitude: 53-19N, longitude: 110-04W, elevation: 665 m

Current weather observation

The report was made 1 hour and 34 minutes ago, at 23:00 UTC
Wind 6 kt from the Southwest
Temperature -12°C
Humidity 85%
Pressure 1008 hPa
Visibility: 19.3 km
Scattered clouds at a height of 1800 ft
Overcast at a height of 5000 ft
light snow

METAR: CYLL 152300Z 22006KT 12SM -SN SCT018 OVC050 M12/M14 A2977 RMK SC3SC5 SLP135

Time: 17:34 (00:34 UTC)

Forecast

The report was made 55 minutes ago, at 23:39 UTC
Forecast valid from 16 at 00 UTC to 16 at 12 UTC
Wind 12 kt from the West
Visibility: 10 km
Broken clouds at a height of 2500 ft
Overcast at a height of 4000 ft
light snow
Temporary
from 16 at 00 UTC to 16 at 12 UTC
Visibility: 6.4 km
Scattered clouds at a height of 800 ft
Overcast at a height of 2000 ft
light snow

TAF: CYLL 152339Z 1600/1612 27012KT P6SM -SN BKN025 OVC040 TEMPO 1600/1612 4SM -SN SCT008 OVC020 RMK NXT FCST BY 160600Z

Weather observations and forecasts of more than 4000 airports (METAR and TAF reports).

The available stations are represented by yellow and red dots on the map.

Hover mouse over dot to see the name of the station.

Then click to see weather observations and forecasts.

To change the map : click on the green buttons with a black cross to zoom in, on the green button with a dash to zoom out, or on the green arrows for adjacent maps.


METAR-TAF: